Time;durP1;ratioP1;P1;durP2;ratioP2;P2;SDS_P1;SDS_P2;PMS_P1;PMS_P2;Temp;Humidity;BMP_temperature;BMP_pressure;BME280_temperature;BME280_humidity;BME280_pressure;Samples;Min_cycle;Max_cycle;Signal;HPM_P1;HPM_P2
2023/04/29 00:00:40;;;;;;;6.90;4.53;;;;;;;11.31;100.00;92396.56;5075321;28;20028;-79
2023/04/29 00:03:07;;;;;;;7.20;4.55;;;;;;;11.31;100.00;92401.81;5079931;28;20033;-79
2023/04/29 00:05:32;;;;;;;8.30;4.30;;;;;;;11.30;100.00;92400.25;5065700;28;20577;-79
2023/04/29 00:07:58;;;;;;;8.60;4.53;;;;;;;11.30;100.00;92404.72;5077233;28;20045;-79
2023/04/29 00:10:23;;;;;;;7.13;4.10;;;;;;;11.25;100.00;92402.97;5077278;28;20202;-79
2023/04/29 00:12:50;;;;;;;6.30;4.00;;;;;;;11.30;100.00;92415.97;5045768;28;20029;-79
2023/04/29 00:15:16;;;;;;;5.88;3.97;;;;;;;11.27;100.00;92403.47;5075672;28;20052;-78
2023/04/29 00:17:42;;;;;;;11.02;4.18;;;;;;;11.25;100.00;92411.59;5064137;28;20036;-77
2023/04/29 00:20:09;;;;;;;8.65;3.92;;;;;;;11.21;100.00;92402.00;5077703;28;20076;-79
2023/04/29 00:22:34;;;;;;;8.93;4.45;;;;;;;11.23;100.00;92405.88;5069802;28;20041;-78
2023/04/29 00:25:00;;;;;;;9.80;4.28;;;;;;;11.23;100.00;92398.00;5076379;28;20356;-79
2023/04/29 00:27:26;;;;;;;6.05;4.10;;;;;;;11.22;100.00;92396.47;5061216;28;20028;-78
2023/04/29 00:29:51;;;;;;;8.73;4.18;;;;;;;11.24;100.00;92399.56;5078100;28;20043;-79
2023/04/29 00:32:17;;;;;;;5.57;3.92;;;;;;;11.14;100.00;92383.28;5075077;28;20025;-79
2023/04/29 00:34:43;;;;;;;6.70;3.97;;;;;;;11.21;100.00;92386.28;5052620;28;20057;-78
2023/04/29 00:37:08;;;;;;;6.65;3.95;;;;;;;11.20;100.00;92379.50;5071376;28;20043;-79
2023/04/29 00:39:34;;;;;;;5.88;3.90;;;;;;;11.20;100.00;92382.13;5043513;28;20025;-79
2023/04/29 00:42:02;;;;;;;6.07;3.75;;;;;;;11.20;100.00;92384.72;5078477;28;20029;-79
2023/04/29 00:44:28;;;;;;;7.63;3.97;;;;;;;10.98;100.00;92351.34;5074845;28;20033;-80
2023/04/29 00:46:53;;;;;;;8.57;4.40;;;;;;;11.20;100.00;92384.72;5074599;28;20497;-80
2023/04/29 00:49:19;;;;;;;6.35;4.05;;;;;;;11.19;100.00;92377.94;5075425;28;20071;-80
2023/04/29 00:51:45;;;;;;;7.75;4.15;;;;;;;11.18;100.00;92379.00;5075610;28;20049;-80
2023/04/29 00:54:12;;;;;;;9.23;4.85;;;;;;;11.15;100.00;92369.13;5076023;28;20028;-80
2023/04/29 00:56:40;;;;;;;6.60;4.25;;;;;;;11.20;100.00;92380.25;5076447;28;20037;-79
2023/04/29 00:59:08;;;;;;;9.90;4.28;;;;;;;11.16;100.00;92373.28;5077086;28;20654;-79
2023/04/29 01:01:34;;;;;;;6.20;4.13;;;;;;;11.20;100.00;92376.88;5076486;28;20036;-78
2023/04/29 01:04:01;;;;;;;7.25;4.20;;;;;;;11.18;100.00;92374.53;5059918;28;20058;-79
2023/04/29 01:06:46;;;;;;;8.10;4.30;;;;;;;11.22;100.00;92375.50;5077485;28;20089;-78
2023/04/29 01:09:27;;;;;;;6.85;4.13;;;;;;;11.23;100.00;92363.19;5070230;28;20032;-79
2023/04/29 01:12:35;;;;;;;6.40;3.90;;;;;;;11.20;100.00;92351.44;5076029;28;20482;-79
2023/04/29 01:15:20;;;;;;;7.75;3.92;;;;;;;11.21;100.00;92332.06;5066374;28;20052;-79
2023/04/29 01:18:18;;;;;;;5.53;3.80;;;;;;;11.20;100.00;92337.56;5076474;28;20040;-79
2023/04/29 01:20:45;;;;;;;7.90;4.38;;;;;;;11.21;100.00;92349.59;5059165;28;20040;-79
2023/04/29 01:23:11;;;;;;;6.43;4.35;;;;;;;11.21;100.00;92346.97;5075608;28;20056;-79
2023/04/29 01:25:38;;;;;;;9.70;4.20;;;;;;;11.22;100.00;92356.41;5075944;28;20421;-79
2023/04/29 01:28:17;;;;;;;6.40;4.32;;;;;;;11.20;100.00;92358.53;5043373;28;20033;-79
2023/04/29 01:30:59;;;;;;;4.85;3.53;;;;;;;11.15;100.00;92353.41;5088440;28;20379;-79
2023/04/29 01:33:49;;;;;;;5.93;3.80;;;;;;;11.14;100.00;92339.50;5072025;28;20131;-79
2023/04/29 01:36:27;;;;;;;6.47;4.10;;;;;;;11.07;100.00;92339.13;5078358;28;20560;-80
2023/04/29 01:39:06;;;;;;;8.50;4.45;;;;;;;11.12;100.00;92344.25;5073832;28;20047;-79
2023/04/29 01:42:04;;;;;;;6.63;4.35;;;;;;;11.10;100.00;92354.28;5077635;28;20045;-79
2023/04/29 01:44:32;;;;;;;7.90;4.53;;;;;;;11.16;99.76;92352.31;5058898;28;20467;-79
2023/04/29 01:47:00;;;;;;;9.48;4.00;;;;;;;11.30;100.00;92349.69;5075271;28;20040;-79
2023/04/29 01:49:35;;;;;;;6.88;4.53;;;;;;;11.29;100.00;92345.53;5062323;28;20172;-78
2023/04/29 01:52:00;;;;;;;8.95;4.40;;;;;;;11.14;100.00;92344.75;5071866;28;20352;-78
2023/04/29 01:54:26;;;;;;;7.53;4.22;;;;;;;11.08;100.00;92350.38;5073257;28;20048;-78
2023/04/29 01:56:53;;;;;;;11.82;4.88;;;;;;;11.02;100.00;92347.84;5056500;28;20129;-78
2023/04/29 01:59:26;;;;;;;6.35;4.10;;;;;;;11.00;100.00;92346.59;5057338;28;20263;-78
2023/04/29 02:02:04;;;;;;;7.68;4.28;;;;;;;10.98;100.00;92346.13;5071674;28;20047;-79
2023/04/29 02:04:33;;;;;;;8.77;4.38;;;;;;;10.96;100.00;92348.25;5072864;28;20037;-78
2023/04/29 02:06:59;;;;;;;7.47;4.40;;;;;;;10.91;100.00;92341.25;5069034;28;20055;-78
2023/04/29 02:09:24;;;;;;;8.73;4.03;;;;;;;10.98;100.00;92341.66;5072594;28;20029;-81
2023/04/29 02:11:55;;;;;;;7.57;4.28;;;;;;;10.94;100.00;92351.19;5056674;28;20033;-80
2023/04/29 02:14:20;;;;;;;6.38;4.40;;;;;;;10.93;100.00;92347.00;5039804;28;20036;-80
2023/04/29 02:16:46;;;;;;;6.43;4.28;;;;;;;11.08;100.00;92360.84;5052273;28;20040;-78
2023/04/29 02:19:12;;;;;;;7.25;3.97;;;;;;;11.14;100.00;92357.84;5066569;28;20052;-80
2023/04/29 02:21:41;;;;;;;10.13;4.53;;;;;;;11.21;100.00;92357.44;5045273;28;20039;-80
2023/04/29 02:24:07;;;;;;;7.72;4.35;;;;;;;11.07;100.00;92346.97;5063874;28;20036;-80
2023/04/29 02:26:33;;;;;;;6.50;4.22;;;;;;;11.00;100.00;92347.38;5072525;28;20032;-80
2023/04/29 02:28:59;;;;;;;12.45;4.05;;;;;;;10.94;100.00;92345.13;5076311;28;20484;-79
2023/04/29 02:31:25;;;;;;;6.75;4.85;;;;;;;10.96;100.00;92353.50;5056511;28;20036;-79
2023/04/29 02:33:53;;;;;;;7.97;4.28;;;;;;;10.94;100.00;92353.78;5075547;28;20045;-79
2023/04/29 02:36:19;;;;;;;8.70;4.20;;;;;;;10.92;100.00;92348.06;5077434;28;20509;-78
2023/04/29 02:38:44;;;;;;;7.38;4.32;;;;;;;10.88;100.00;92347.09;5042107;28;20048;-79
2023/04/29 02:41:17;;;;;;;7.70;4.57;;;;;;;10.90;100.00;92344.97;5047631;28;20072;-79
2023/04/29 02:43:43;;;;;;;5.78;4.15;;;;;;;10.88;100.00;92346.31;5057890;28;20081;-79
2023/04/29 02:46:09;;;;;;;5.85;3.90;;;;;;;10.88;100.00;92344.47;5043289;28;20033;-79
2023/04/29 02:48:36;;;;;;;7.13;4.30;;;;;;;10.87;100.00;92337.66;5079319;28;20043;-79
2023/04/29 02:51:02;;;;;;;8.18;4.47;;;;;;;10.76;100.00;92337.09;5058304;28;20083;-79
2023/04/29 02:53:28;;;;;;;12.57;4.28;;;;;;;10.82;100.00;92338.53;5043492;28;20021;-80
2023/04/29 02:55:54;;;;;;;9.35;4.38;;;;;;;10.81;100.00;92336.22;5048043;28;20063;-79
2023/04/29 02:58:20;;;;;;;6.55;4.15;;;;;;;10.84;100.00;92340.88;5079801;28;20456;-79
2023/04/29 03:00:45;;;;;;;5.45;4.03;;;;;;;10.81;100.00;92331.00;5061412;28;20021;-79
2023/04/29 03:03:11;;;;;;;6.05;4.30;;;;;;;10.83;100.00;92329.63;5079353;28;20123;-79
2023/04/29 03:05:37;;;;;;;7.70;4.00;;;;;;;10.86;100.00;92323.03;5074760;28;20028;-79
2023/04/29 03:08:03;;;;;;;9.15;3.80;;;;;;;10.79;100.00;92326.03;5079761;28;20039;-79
2023/04/29 03:10:29;;;;;;;5.53;4.20;;;;;;;10.81;100.00;92331.00;5062177;28;20430;-79
2023/04/29 03:12:55;;;;;;;8.07;3.83;;;;;;;10.77;100.00;92322.16;5057991;28;20036;-79
2023/04/29 03:15:21;;;;;;;10.85;4.20;;;;;;;10.74;100.00;92323.53;5079106;28;20036;-79
2023/04/29 03:17:48;;;;;;;7.72;4.97;;;;;;;10.77;100.00;92327.41;5079393;28;20037;-79
2023/04/29 03:20:13;;;;;;;9.32;4.38;;;;;;;10.76;100.00;92315.38;5079266;28;20407;-79
2023/04/29 03:22:39;;;;;;;9.18;4.70;;;;;;;10.82;100.00;92322.06;5061690;28;20092;-79
2023/04/29 03:25:05;;;;;;;7.93;4.60;;;;;;;10.84;100.00;92320.69;5080358;28;20064;-79
2023/04/29 03:27:32;;;;;;;10.35;4.90;;;;;;;10.87;100.00;92321.19;5077429;28;20055;-79
2023/04/29 03:29:58;;;;;;;6.55;4.60;;;;;;;10.91;100.00;92320.31;5078497;28;20033;-79
2023/04/29 03:32:23;;;;;;;11.23;4.60;;;;;;;10.89;100.00;92317.22;5077058;28;20047;-80
2023/04/29 03:34:50;;;;;;;9.43;4.30;;;;;;;10.87;100.00;92319.34;5078305;28;20065;-79
2023/04/29 03:37:29;;;;;;;12.10;4.40;;;;;;;10.81;100.00;92315.28;5077739;28;20062;-79
2023/04/29 03:40:07;;;;;;;5.88;3.58;;;;;;;10.80;100.00;92308.47;5078268;28;20052;-79
2023/04/29 03:42:33;;;;;;;7.93;4.20;;;;;;;10.79;100.00;92314.81;5043009;28;20105;-79
2023/04/29 03:44:58;;;;;;;6.47;4.07;;;;;;;10.77;100.00;92309.06;5078550;28;20032;-78
2023/04/29 03:47:24;;;;;;;5.90;3.70;;;;;;;10.73;100.00;92311.50;5078850;28;20033;-79
2023/04/29 03:49:50;;;;;;;7.18;3.70;;;;;;;10.72;100.00;92311.81;5064746;28;20047;-79
2023/04/29 03:52:16;;;;;;;7.63;4.38;;;;;;;10.71;100.00;92307.63;5063017;28;20040;-79
2023/04/29 03:54:42;;;;;;;8.13;4.10;;;;;;;10.70;100.00;92308.69;5080334;28;20078;-79
2023/04/29 03:57:07;;;;;;;11.95;4.28;;;;;;;10.69;100.00;92301.88;5063713;28;20033;-79
2023/04/29 03:59:33;;;;;;;9.43;4.47;;;;;;;10.68;100.00;92305.59;5077975;28;20044;-79
2023/04/29 04:01:59;;;;;;;8.15;4.15;;;;;;;10.68;100.00;92302.97;5076503;28;20059;-80
2023/04/29 04:04:25;;;;;;;6.47;4.15;;;;;;;10.67;100.00;92299.56;5076395;28;20431;-78
2023/04/29 04:06:51;;;;;;;6.07;3.90;;;;;;;10.69;100.00;92302.66;5058293;28;20032;-79
2023/04/29 04:09:18;;;;;;;9.23;4.03;;;;;;;10.66;100.00;92297.25;5060987;28;20040;-79
2023/04/29 04:11:44;;;;;;;7.47;4.30;;;;;;;10.63;100.00;92304.59;5060463;28;20036;-79
2023/04/29 04:14:10;;;;;;;10.93;3.78;;;;;;;10.65;100.00;92311.38;5067276;28;20055;-79
2023/04/29 04:16:36;;;;;;;9.85;4.25;;;;;;;10.66;100.00;92310.34;5072462;28;20084;-79
2023/04/29 04:19:02;;;;;;;6.75;3.88;;;;;;;10.63;100.00;92302.00;5057765;28;20060;-80
2023/04/29 04:21:30;;;;;;;8.63;4.28;;;;;;;10.65;100.00;92308.75;5076201;28;20150;-79
2023/04/29 04:24:04;;;;;;;6.35;4.07;;;;;;;10.61;100.00;92301.50;5076038;28;20047;-79
2023/04/29 04:26:29;;;;;;;7.97;4.45;;;;;;;10.66;100.00;92312.94;5078056;28;20045;-79
2023/04/29 04:29:01;;;;;;;8.55;4.40;;;;;;;10.66;100.00;92308.47;5079546;28;20088;-79
2023/04/29 04:31:39;;;;;;;8.15;4.20;;;;;;;10.68;100.00;92301.13;5035979;28;20044;-79
2023/04/29 04:34:06;;;;;;;5.53;3.90;;;;;;;10.70;100.00;92306.06;5049640;28;20131;-79
2023/04/29 04:36:32;;;;;;;7.70;4.35;;;;;;;10.73;100.00;92308.09;5074541;28;20058;-79
2023/04/29 04:38:57;;;;;;;6.05;4.38;;;;;;;10.72;100.00;92311.81;5066662;28;20024;-79
2023/04/29 04:41:23;;;;;;;8.05;4.40;;;;;;;10.73;100.00;92319.34;5078326;28;20036;-79
2023/04/29 04:43:51;;;;;;;8.57;4.07;;;;;;;10.74;100.00;92320.13;5077693;28;20043;-79
2023/04/29 04:46:32;;;;;;;8.00;4.03;;;;;;;10.76;100.00;92323.22;5047739;28;20501;-79
2023/04/29 04:49:06;;;;;;;6.28;4.15;;;;;;;10.81;100.00;92326.53;5077732;28;20040;-78
2023/04/29 04:51:33;;;;;;;6.35;4.13;;;;;;;10.82;100.00;92322.06;5076984;28;20070;-79
2023/04/29 04:53:59;;;;;;;8.18;4.05;;;;;;;10.86;100.00;92327.50;5061141;28;20615;-79
2023/04/29 04:56:27;;;;;;;6.80;4.05;;;;;;;10.89;100.00;92321.69;5075590;28;20047;-79
2023/04/29 04:58:53;;;;;;;7.95;4.18;;;;;;;10.91;100.00;92324.78;5075168;28;20049;-79
2023/04/29 05:01:18;;;;;;;8.48;4.38;;;;;;;10.95;100.00;92334.38;5068436;28;20021;-79
2023/04/29 05:03:44;;;;;;;9.80;3.85;;;;;;;10.94;100.00;92335.47;5045293;28;20044;-79
2023/04/29 05:06:10;;;;;;;6.82;3.78;;;;;;;10.97;100.00;92334.88;5068229;28;20032;-78
2023/04/29 05:08:38;;;;;;;6.78;3.70;;;;;;;10.99;100.00;92330.13;5058746;28;20067;-79
2023/04/29 05:11:04;;;;;;;5.80;4.05;;;;;;;11.02;100.00;92334.00;5076008;28;20045;-79
2023/04/29 05:13:29;;;;;;;6.32;4.13;;;;;;;11.05;100.00;92336.03;5076059;28;20020;-80
2023/04/29 05:15:55;;;;;;;6.28;4.18;;;;;;;11.07;100.00;92348.84;5075030;28;20052;-79
2023/04/29 05:18:25;;;;;;;7.85;4.00;;;;;;;11.08;100.00;92345.94;5076768;28;20073;-79
2023/04/29 05:20:51;;;;;;;8.27;4.18;;;;;;;11.13;100.00;92345.81;5064861;28;20505;-79
2023/04/29 05:23:17;;;;;;;6.05;3.85;;;;;;;11.18;100.00;92350.97;5055303;28;20043;-79
2023/04/29 05:25:44;;;;;;;6.40;3.78;;;;;;;11.20;100.00;92345.44;5059326;28;20405;-79
2023/04/29 05:28:10;;;;;;;7.25;4.05;;;;;;;11.21;100.00;92349.59;5055681;28;20037;-79
2023/04/29 05:30:39;;;;;;;5.75;4.07;;;;;;;11.23;100.00;92352.69;5074070;28;20029;-79
2023/04/29 05:33:05;;;;;;;6.85;4.10;;;;;;;11.26;100.00;92360.00;5053792;28;20086;-81
2023/04/29 05:35:32;;;;;;;6.45;4.65;;;;;;;11.26;100.00;92354.75;5070864;28;20485;-80
2023/04/29 05:37:58;;;;;;;7.75;4.03;;;;;;;11.29;100.00;92356.78;5072533;28;20036;-80
2023/04/29 05:40:31;;;;;;;9.35;4.63;;;;;;;11.28;100.00;92347.38;5071293;28;20040;-80
2023/04/29 05:43:27;;;;;;;7.32;4.40;;;;;;;11.31;100.00;92359.88;5075137;28;20127;-79
2023/04/29 05:45:54;;;;;;;7.13;4.40;;;;;;;11.37;100.00;92358.72;5070624;28;20059;-80
2023/04/29 05:48:20;;;;;;;10.25;5.70;;;;;;;11.33;100.00;92359.59;5067429;28;20040;-80
2023/04/29 05:50:47;;;;;;;7.93;4.45;;;;;;;11.42;100.00;92360.47;5075912;28;20053;-79
2023/04/29 05:53:13;;;;;;;6.47;4.60;;;;;;;11.48;100.00;92348.78;5075678;28;20037;-79
2023/04/29 05:55:43;;;;;;;7.05;4.30;;;;;;;11.49;100.00;92365.31;5075895;28;20028;-79
2023/04/29 05:58:09;;;;;;;7.32;4.57;;;;;;;11.41;100.00;92364.91;5074287;28;20082;-78
2023/04/29 06:00:35;;;;;;;8.48;4.45;;;;;;;11.41;100.00;92354.41;5051959;28;20056;-79
2023/04/29 06:03:10;;;;;;;7.80;4.80;;;;;;;11.46;100.00;92359.56;5073826;28;20033;-79
2023/04/29 06:05:36;;;;;;;8.25;4.18;;;;;;;11.49;100.00;92367.91;5070398;28;20067;-79
2023/04/29 06:08:21;;;;;;;7.00;4.70;;;;;;;11.79;100.00;92366.50;5075867;28;20056;-79
2023/04/29 06:10:52;;;;;;;7.28;4.90;;;;;;;11.70;100.00;92363.78;5074694;28;20038;-79
2023/04/29 06:13:18;;;;;;;6.68;4.82;;;;;;;11.70;100.00;92357.78;5069445;28;20044;-79
2023/04/29 06:15:44;;;;;;;6.35;4.30;;;;;;;11.77;100.00;92364.16;5038277;28;20037;-79
2023/04/29 06:18:10;;;;;;;8.80;4.57;;;;;;;11.85;100.00;92363.47;5063998;28;20048;-80
2023/04/29 06:20:36;;;;;;;6.70;4.60;;;;;;;11.96;100.00;92358.03;5050951;28;20049;-81
2023/04/29 06:23:01;;;;;;;6.50;3.58;;;;;;;12.03;100.00;92358.38;5067781;28;20044;-79
2023/04/29 06:25:27;;;;;;;9.05;4.22;;;;;;;12.12;100.00;92361.84;5071151;28;20054;-79
2023/04/29 06:27:56;;;;;;;5.47;4.05;;;;;;;12.16;100.00;92368.06;5056411;28;20043;-81
2023/04/29 06:30:25;;;;;;;5.78;3.85;;;;;;;12.29;100.00;92361.16;5073906;28;20035;-81
2023/04/29 06:32:52;;;;;;;5.85;3.85;;;;;;;12.30;100.00;92362.75;5076980;28;20036;-82
2023/04/29 06:35:18;;;;;;;6.35;4.07;;;;;;;12.25;100.00;92361.00;5077433;28;20111;-81
2023/04/29 06:37:46;;;;;;;5.97;3.90;;;;;;;12.22;100.00;92369.47;5073974;28;20032;-78
2023/04/29 06:40:38;;;;;;;7.85;3.92;;;;;;;12.32;100.00;92376.34;5037865;28;20071;-75
2023/04/29 06:43:23;;;;;;;8.93;4.50;;;;;;;12.29;100.00;92372.47;5066800;28;20059;-80
2023/04/29 06:46:09;;;;;;;5.38;3.78;;;;;;;12.31;100.00;92369.53;5029256;28;20049;-79
2023/04/29 06:48:44;;;;;;;7.30;4.68;;;;;;;12.34;100.00;92376.81;5069541;28;20040;-77
2023/04/29 06:51:10;;;;;;;7.88;4.57;;;;;;;12.37;100.00;92375.44;5066964;28;20478;-78
2023/04/29 06:53:37;;;;;;;8.70;4.40;;;;;;;12.43;100.00;92382.13;5069310;28;20036;-77
2023/04/29 06:56:02;;;;;;;7.53;4.43;;;;;;;12.60;100.00;92387.47;5066615;28;20055;-77
2023/04/29 06:58:28;;;;;;;6.90;4.15;;;;;;;12.84;100.00;92383.75;5055214;28;20131;-77
2023/04/29 07:00:54;;;;;;;8.20;4.03;;;;;;;13.10;100.00;92379.38;5050133;28;20382;-76
2023/04/29 07:03:21;;;;;;;6.05;4.30;;;;;;;13.30;100.00;92372.03;5066241;28;20394;-77
2023/04/29 07:05:47;;;;;;;9.95;4.53;;;;;;;13.59;100.00;92378.59;5065903;28;20028;-76
2023/04/29 07:08:13;;;;;;;7.85;3.88;;;;;;;13.83;100.00;92373.69;5047268;28;20044;-77
2023/04/29 07:10:40;;;;;;;8.38;3.75;;;;;;;14.03;100.00;92371.53;5063524;28;20040;-77
2023/04/29 07:13:06;;;;;;;5.78;3.97;;;;;;;14.26;100.00;92378.19;5062383;28;20060;-77
2023/04/29 07:15:35;;;;;;;7.00;4.20;;;;;;;14.14;100.00;92378.81;5045335;28;20111;-77
2023/04/29 07:18:05;;;;;;;11.75;4.43;;;;;;;13.92;100.00;92374.47;5046843;28;20099;-77
2023/04/29 07:20:31;;;;;;;6.65;4.47;;;;;;;13.67;100.00;92377.84;5078131;28;20045;-77
2023/04/29 07:22:58;;;;;;;7.50;4.80;;;;;;;13.75;100.00;92379.69;5068893;28;20375;-77
2023/04/29 07:25:25;;;;;;;5.53;4.03;;;;;;;13.70;100.00;92379.84;5033592;28;20509;-77
2023/04/29 07:27:51;;;;;;;6.97;4.53;;;;;;;13.63;100.00;92374.28;5068947;28;20040;-77
2023/04/29 07:30:17;;;;;;;6.18;3.90;;;;;;;13.65;97.38;92383.41;5036712;28;20038;-77
2023/04/29 07:32:43;;;;;;;6.47;4.00;;;;;;;13.76;98.14;92381.25;5067163;28;20158;-77
2023/04/29 07:35:08;;;;;;;8.75;4.50;;;;;;;13.73;100.00;92377.41;5060840;28;20494;-77
2023/04/29 07:37:35;;;;;;;9.07;4.63;;;;;;;13.56;100.00;92379.22;5045961;28;20037;-77
2023/04/29 07:40:00;;;;;;;7.13;4.95;;;;;;;13.63;100.00;92384.81;5036151;28;20041;-77
2023/04/29 07:42:26;;;;;;;8.65;5.05;;;;;;;13.74;100.00;92386.81;5067073;28;20048;-77
2023/04/29 07:44:52;;;;;;;7.95;5.18;;;;;;;13.68;100.00;92380.16;5040157;28;20515;-77
2023/04/29 07:47:18;;;;;;;6.53;4.03;;;;;;;13.68;100.00;92389.91;5045727;28;20036;-77
2023/04/29 07:49:44;;;;;;;6.00;3.80;;;;;;;13.65;95.11;92395.78;5062197;28;20064;-78
2023/04/29 07:52:10;;;;;;;5.22;3.30;;;;;;;13.54;91.01;92401.31;5069993;28;20039;-77
2023/04/29 07:54:36;;;;;;;6.15;3.63;;;;;;;13.56;93.81;92400.25;5035991;28;20029;-77
2023/04/29 07:57:03;;;;;;;5.97;4.05;;;;;;;13.66;100.00;92402.59;5067219;28;20382;-78
2023/04/29 07:59:32;;;;;;;6.22;4.38;;;;;;;13.63;100.00;92403.97;5068070;28;20051;-78
2023/04/29 08:01:57;;;;;;;13.65;4.07;;;;;;;13.69;100.00;92404.59;5064973;28;20064;-77
2023/04/29 08:04:23;;;;;;;6.97;4.50;;;;;;;13.61;100.00;92405.38;5059027;28;20367;-74
2023/04/29 08:07:03;;;;;;;8.88;4.63;;;;;;;13.66;100.00;92402.59;5060632;28;20059;-76
2023/04/29 08:09:29;;;;;;;7.10;4.10;;;;;;;13.85;100.00;92381.28;5067745;28;20476;-77
2023/04/29 08:11:54;;;;;;;5.47;4.15;;;;;;;13.73;100.00;92392.38;5070170;28;20037;-77
2023/04/29 08:14:20;;;;;;;8.10;4.35;;;;;;;13.69;100.00;92396.69;5067037;28;20067;-78
2023/04/29 08:16:46;;;;;;;6.90;3.92;;;;;;;13.51;100.00;92386.16;5068449;28;20681;-77
2023/04/29 08:19:12;;;;;;;4.90;3.50;;;;;;;13.71;100.00;92399.81;5072604;28;20120;-83
2023/04/29 08:21:38;;;;;;;6.53;4.00;;;;;;;13.72;100.00;92390.84;5060866;28;20033;-75
2023/04/29 08:24:04;;;;;;;5.55;3.65;;;;;;;13.82;100.00;92389.78;5051653;28;20051;-76
2023/04/29 08:26:30;;;;;;;7.07;3.53;;;;;;;13.84;100.00;92375.22;5067139;28;20277;-78
2023/04/29 08:28:56;;;;;;;6.85;4.30;;;;;;;13.89;100.00;92382.19;5069420;28;20060;-79
2023/04/29 08:31:21;;;;;;;6.85;3.90;;;;;;;14.10;100.00;92382.38;5068948;28;20033;-77
2023/04/29 08:33:47;;;;;;;7.88;4.65;;;;;;;14.20;100.00;92376.78;5068499;28;20093;-78
2023/04/29 08:36:13;;;;;;;7.53;5.03;;;;;;;14.24;100.00;92374.31;5068945;28;20553;-77
2023/04/29 08:38:39;;;;;;;7.55;4.57;;;;;;;14.11;100.00;92378.63;5070521;28;20025;-76
2023/04/29 08:41:07;;;;;;;9.57;5.03;;;;;;;14.32;100.00;92376.16;5070974;28;20599;-77
2023/04/29 08:43:36;;;;;;;9.30;5.03;;;;;;;14.28;100.00;92373.38;5060837;28;20037;-76
2023/04/29 08:46:02;;;;;;;7.55;5.20;;;;;;;14.69;100.00;92376.59;5068601;28;20043;-75
2023/04/29 08:48:29;;;;;;;8.43;5.07;;;;;;;14.94;100.00;92382.88;5069668;28;20596;-76
2023/04/29 08:50:57;;;;;;;8.77;5.18;;;;;;;14.97;100.00;92371.69;5048690;28;20028;-76
2023/04/29 08:53:22;;;;;;;6.82;4.85;;;;;;;14.86;100.00;92370.50;5064137;28;20017;-77
2023/04/29 08:55:48;;;;;;;6.13;4.85;;;;;;;14.80;100.00;92374.41;5075666;28;20089;-79
2023/04/29 08:58:15;;;;;;;6.85;4.70;;;;;;;14.81;100.00;92360.13;5069965;28;20497;-77
2023/04/29 09:00:44;;;;;;;9.70;4.90;;;;;;;14.77;100.00;92368.69;5043495;28;20024;-77
2023/04/29 09:03:11;;;;;;;8.07;5.30;;;;;;;14.54;100.00;92356.75;5063142;28;20036;-76
2023/04/29 09:05:40;;;;;;;8.57;5.15;;;;;;;14.87;100.00;92364.16;5066352;28;20115;-76
2023/04/29 09:08:07;;;;;;;9.73;5.60;;;;;;;15.15;100.00;92359.22;5066716;28;20040;-76
2023/04/29 09:10:36;;;;;;;7.97;5.30;;;;;;;15.79;100.00;92350.38;5063151;28;20316;-78
2023/04/29 09:13:02;;;;;;;7.65;5.15;;;;;;;16.02;97.25;92345.56;5065445;28;20073;-78
2023/04/29 09:15:28;;;;;;;7.22;4.75;;;;;;;16.06;97.29;92349.09;5066373;28;20131;-78
2023/04/29 09:17:53;;;;;;;10.98;5.05;;;;;;;16.57;93.82;92346.31;5057530;28;20449;-78
2023/04/29 09:20:19;;;;;;;9.85;4.78;;;;;;;16.39;90.95;92354.41;5074541;28;20057;-78
2023/04/29 09:23:02;;;;;;;13.65;4.70;;;;;;;15.80;95.21;92357.19;5085695;28;20039;-76
2023/04/29 09:25:30;;;;;;;7.05;4.68;;;;;;;16.14;96.05;92350.13;5068110;28;20036;-75
2023/04/29 09:27:56;;;;;;;7.93;4.80;;;;;;;15.92;94.29;92352.00;5086359;28;20036;-76
2023/04/29 09:30:22;;;;;;;6.00;3.60;;;;;;;15.78;92.38;92357.53;5067150;28;20024;-76
2023/04/29 09:33:09;;;;;;;6.20;4.32;;;;;;;15.53;95.57;92361.06;5083873;28;20071;-77
2023/04/29 09:35:35;;;;;;;6.72;4.60;;;;;;;15.72;93.51;92363.31;5080746;28;20378;-76
2023/04/29 09:38:13;;;;;;;8.35;4.45;;;;;;;15.73;93.35;92365.63;5061359;28;20374;-79
2023/04/29 09:40:40;;;;;;;5.80;3.88;;;;;;;15.83;90.53;92359.22;5083589;28;20385;-76
2023/04/29 09:43:17;;;;;;;8.38;3.53;;;;;;;15.66;89.61;92359.28;5084270;28;20032;-75
2023/04/29 09:45:47;;;;;;;5.43;4.03;;;;;;;15.52;91.39;92360.28;5080757;28;20441;-76
2023/04/29 09:48:14;;;;;;;6.45;4.03;;;;;;;15.45;90.24;92362.66;5072769;28;20043;-77
2023/04/29 09:50:45;;;;;;;7.85;4.00;;;;;;;15.53;89.51;92353.16;5084548;28;20096;-76
2023/04/29 09:53:28;;;;;;;3.93;2.90;;;;;;;15.65;89.59;92355.09;5077599;28;20040;-76
2023/04/29 09:55:53;;;;;;;;;;;;;;;15.55;90.13;92353.59;5080823;28;20036;-76
2023/04/29 09:58:35;;;;;;;6.57;3.97;;;;;;;15.77;90.80;92355.97;5081132;28;19912;-76
2023/04/29 10:01:02;;;;;;;6.85;4.25;;;;;;;16.28;86.81;92358.56;5080252;28;20111;-78
2023/04/29 10:03:35;;;;;;;7.00;4.03;;;;;;;16.52;84.50;92349.16;5079107;28;20833;-75
2023/04/29 10:06:02;;;;;;;6.78;3.50;;;;;;;16.55;83.25;92345.84;5077515;28;20039;-76
2023/04/29 10:08:28;;;;;;;3.55;2.42;;;;;;;16.75;79.47;92347.69;5083571;28;20054;-76
2023/04/29 10:11:00;;;;;;;5.88;3.70;;;;;;;16.84;80.78;92343.13;5087202;28;20028;-79
2023/04/29 10:13:27;;;;;;;7.70;4.50;;;;;;;16.61;80.48;92349.84;5085522;28;20089;-75
2023/04/29 10:16:14;;;;;;;8.70;3.80;;;;;;;16.53;81.80;92342.81;5083152;28;20032;-77
2023/04/29 10:18:43;;;;;;;6.07;3.83;;;;;;;16.70;78.43;92345.25;5081536;28;20039;-79
2023/04/29 10:21:10;;;;;;;5.25;3.65;;;;;;;17.13;79.48;92349.31;5070978;28;20044;-78
2023/04/29 10:23:37;;;;;;;10.75;3.70;;;;;;;17.08;78.53;92330.25;5072347;28;20166;-79
2023/04/29 10:26:05;;;;;;;9.25;3.38;;;;;;;17.79;79.98;92342.25;5098306;28;20085;-77
2023/04/29 10:28:31;;;;;;;7.55;3.60;;;;;;;18.05;74.26;92329.38;5078661;28;20105;-78
2023/04/29 10:31:01;;;;;;;5.53;3.65;;;;;;;18.01;74.64;92339.13;5078405;28;20386;-78
2023/04/29 10:33:30;;;;;;;4.88;2.70;;;;;;;18.31;72.91;92328.22;5080018;28;20453;-78
2023/04/29 10:35:56;;;;;;;4.88;2.75;;;;;;;18.51;73.26;92329.88;5088297;28;20492;-78
2023/04/29 10:38:25;;;;;;;7.15;3.38;;;;;;;18.60;70.88;92323.66;5086880;28;20032;-78
2023/04/29 10:40:52;;;;;;;7.40;4.90;;;;;;;18.31;75.22;92323.69;5079657;28;20275;-76
2023/04/29 10:43:25;;;;;;;10.18;5.18;;;;;;;17.61;78.88;92323.94;5079947;28;20510;-78
2023/04/29 10:46:21;;;;;;;7.28;4.70;;;;;;;17.46;76.95;92314.81;5080956;28;20235;-76
2023/04/29 10:48:49;;;;;;;4.00;2.40;;;;;;;17.28;75.78;92319.56;5078235;28;20097;-77
2023/04/29 10:51:35;;;;;;;4.30;2.78;;;;;;;17.50;73.52;92312.28;5081442;28;20366;-77
2023/04/29 10:54:09;;;;;;;4.65;2.60;;;;;;;17.69;71.91;92312.44;5080785;28;20093;-77
2023/04/29 10:56:50;;;;;;;6.38;4.30;;;;;;;17.18;81.53;92317.38;5071352;28;20064;-77
2023/04/29 10:59:20;;;;;;;11.23;6.60;;;;;;;16.98;84.89;92305.03;5079940;28;20028;-77
2023/04/29 11:01:52;;;;;;;10.45;5.60;;;;;;;16.83;84.86;92303.78;5083134;28;20078;-77
2023/04/29 11:04:21;;;;;;;7.03;4.80;;;;;;;16.93;83.23;92297.28;5078612;28;20044;-76
2023/04/29 11:06:51;;;;;;;8.68;5.30;;;;;;;16.95;84.68;92306.44;5074406;28;20079;-76
2023/04/29 11:09:18;;;;;;;7.43;4.10;;;;;;;16.76;81.86;92308.81;5072382;28;20067;-77
2023/04/29 11:12:17;;;;;;;7.65;4.07;;;;;;;17.00;83.93;92300.16;5078128;28;20064;-77
2023/04/29 11:14:49;;;;;;;4.10;2.63;;;;;;;17.05;76.37;92299.97;5073489;28;20088;-76
2023/04/29 11:17:18;;;;;;;7.97;3.90;;;;;;;17.15;80.66;92293.44;5078834;28;20044;-78
2023/04/29 11:19:49;;;;;;;7.22;3.40;;;;;;;17.20;77.81;92294.00;5076785;28;20087;-73
2023/04/29 11:22:18;;;;;;;7.65;4.22;;;;;;;17.43;82.53;92294.31;5102824;28;20451;-74
2023/04/29 11:24:55;;;;;;;8.25;4.57;;;;;;;16.98;81.10;92300.50;5085521;28;20599;-77
2023/04/29 11:27:26;;;;;;;7.22;5.13;;;;;;;16.91;83.39;92294.19;5094384;28;20036;-80
2023/04/29 11:29:57;;;;;;;6.65;4.57;;;;;;;17.02;84.57;92298.75;5091776;28;20112;-78
2023/04/29 11:32:43;;;;;;;7.43;5.50;;;;;;;17.37;82.94;92293.00;5085768;28;20090;-77
2023/04/29 11:35:13;;;;;;;9.32;5.68;;;;;;;17.48;81.57;92293.31;5089953;28;20533;-76